»·PEaware :: N7969 KBFL-KMYF

N7969 :: KBFL-KMYF

FLIGHT INFORMATION

Flight Status: Arrived
Operator: Privately registered:
United States
More flights under this callsign
Pilot: Diana Atalanta G. (28375)
Aircraft: PIPER PA-31/31P NAVAJO CHIEFTAIN
(PA31)
More flights by this aircraft type
Origin: KBFL Meadows
United States
Destination: KMYF Montgomery
United States
More flights between these airports :: More routes between these airports
Route:
File this flight plan on PilotEdge
Remarks: NONE
Altitude:
(Current/Filed)
9,500ft
Speed:
(Current/Filed)
160kts
Departed: 25-Mar-23 09:35 AM
Arrived: 25-Mar-23 10:53 AM
Distance/Time
Traveled:
184nm/1:18
Distance/Time
To Go:
Arrived

Flight Plot

Page will automatically refresh every two minutes.

Flight plan parsing failed; only flown route is shown


Map Options




Map Legend


Flown Route
Filed Route
Departure Airport
Arrival Airport
Navaid (VOR, NDB)
Fix

Horizontal Profiles

Position Reports

Time Latitude Longitude Heading Altitude Ground
Speed
25-Mar-23 09:28 35.429665 -119.046624 136 499ft 0kts
25-Mar-23 09:29 35.429665 -119.046624 136 499ft 0kts
25-Mar-23 09:30 35.426941 -119.044564 169 499ft 21kts
25-Mar-23 09:31 35.425755 -119.045100 225 499ft 0kts
25-Mar-23 09:32 35.425754 -119.045101 225 499ft 0kts
25-Mar-23 09:33 35.425538 -119.046144 315 499ft 0kts
25-Mar-23 09:34 35.444146 -119.069500 311 947ft 148kts
25-Mar-23 09:35 35.478747 -119.091829 39 1881ft 177kts
25-Mar-23 09:36 35.510280 -119.055680 39 3957ft 139kts
25-Mar-23 09:37 35.535867 -119.017511 63 5684ft 151kts
25-Mar-23 09:38 35.511624 -118.976093 143 7397ft 147kts
25-Mar-23 09:39 35.480513 -118.947226 138 9256ft 157kts
25-Mar-23 09:40 35.440688 -118.917239 174 9230ft 194kts
25-Mar-23 09:41 35.387582 -118.911359 174 9136ft 196kts
25-Mar-23 09:42 35.336000 -118.900241 173 9225ft 192kts
25-Mar-23 09:43 35.283446 -118.892898 174 9237ft 194kts
25-Mar-23 09:44 35.230741 -118.881721 172 9225ft 196kts
25-Mar-23 09:45 35.197534 -118.877470 174 9268ft 193kts
25-Mar-23 09:46 35.178953 -118.874821 175 9189ft 197kts
25-Mar-23 09:47 35.124994 -118.868010 181 9106ft 205kts
25-Mar-23 09:48 35.069960 -118.866867 181 9224ft 199kts
25-Mar-23 09:49 35.015319 -118.862180 173 9191ft 202kts
25-Mar-23 09:50 34.964250 -118.862733 181 9165ft 202kts
25-Mar-23 09:51 34.911034 -118.873138 193 9054ft 204kts
25-Mar-23 09:52 34.860418 -118.860726 176 9125ft 200kts
25-Mar-23 09:53 34.806717 -118.852762 153 9232ft 195kts
25-Mar-23 09:54 34.757463 -118.828475 152 9167ft 201kts
25-Mar-23 09:55 34.705083 -118.809348 165 9165ft 200kts
25-Mar-23 09:56 34.652509 -118.789745 155 9115ft 204kts
25-Mar-23 09:57 34.603741 -118.760210 151 9197ft 201kts
25-Mar-23 09:58 34.555445 -118.728977 151 9341ft 195kts
25-Mar-23 09:59 34.507019 -118.704339 158 9388ft 199kts
25-Mar-23 10:00 34.455264 -118.685871 166 9387ft 200kts
25-Mar-23 10:01 34.403384 -118.666575 158 9393ft 203kts
25-Mar-23 10:02 34.353238 -118.640112 155 9394ft 204kts
25-Mar-23 10:03 34.304022 -118.611977 155 9397ft 206kts
25-Mar-23 10:04 34.258121 -118.585428 154 9395ft 206kts
25-Mar-23 10:05 34.211920 -118.558277 154 9415ft 206kts
25-Mar-23 10:06 34.165077 -118.531912 160 9400ft 207kts
25-Mar-23 10:07 34.115355 -118.509144 160 9441ft 205kts
25-Mar-23 10:08 34.106411 -118.482981 341 9769ft 156kts
25-Mar-23 10:09 34.102806 -118.487519 120 9475ft 206kts
25-Mar-23 10:10 34.077136 -118.438351 117 9412ft 207kts
25-Mar-23 10:12 34.050548 -118.386276 121 9409ft 207kts
25-Mar-23 10:13 34.021644 -118.337494 135 9400ft 206kts
25-Mar-23 10:14 33.985478 -118.295912 130 9430ft 203kts
25-Mar-23 10:15 33.953535 -118.250629 130 9495ft 201kts
25-Mar-23 10:16 33.920380 -118.207717 133 9495ft 203kts
25-Mar-23 10:17 33.886629 -118.166321 134 9483ft 205kts
25-Mar-23 10:18 33.848852 -118.120637 134 9427ft 208kts
25-Mar-23 10:19 33.807700 -118.075086 162 9295ft 208kts
25-Mar-23 10:20 33.757232 -118.053402 159 9408ft 201kts
25-Mar-23 10:21 33.708446 -118.024589 152 9412ft 204kts
25-Mar-23 10:22 33.652124 -118.001644 155 9348ft 206kts
25-Mar-23 10:23 33.598300 -117.965079 151 9395ft 205kts
25-Mar-23 10:24 33.542785 -117.924965 150 9390ft 206kts
25-Mar-23 10:25 33.487878 -117.880207 140 9454ft 205kts
25-Mar-23 10:26 33.441477 -117.836108 153 9434ft 206kts
25-Mar-23 10:27 33.390909 -117.803350 153 9438ft 206kts
25-Mar-23 10:28 33.340358 -117.770270 153 9443ft 207kts
25-Mar-23 10:29 33.290270 -117.734792 147 9330ft 213kts
25-Mar-23 10:30 33.249410 -117.695293 140 8059ft 181kts
25-Mar-23 10:31 33.210658 -117.657418 140 6063ft 175kts
25-Mar-23 10:32 33.171627 -117.620278 141 5320ft 184kts
25-Mar-23 10:32 33.136839 -117.591314 143 5370ft 186kts
25-Mar-23 10:34 33.088513 -117.548029 140 5343ft 186kts
25-Mar-23 10:35 33.058887 -117.502095 71 4858ft 197kts
25-Mar-23 10:36 33.076854 -117.441865 64 3417ft 169kts
25-Mar-23 10:36 33.090758 -117.401701 65 3500ft 158kts
25-Mar-23 10:37 33.088065 -117.355403 138 3460ft 167kts
25-Mar-23 10:39 33.049414 -117.311736 160 3464ft 170kts
25-Mar-23 10:40 33.005422 -117.292339 157 3540ft 167kts
25-Mar-23 10:41 32.962630 -117.269192 151 3425ft 173kts
25-Mar-23 10:41 32.930421 -117.245215 144 3463ft 170kts
25-Mar-23 10:42 32.890091 -117.236609 190 3163ft 170kts
25-Mar-23 10:43 32.845449 -117.243386 179 3217ft 169kts
25-Mar-23 10:45 32.812891 -117.201366 116 2870ft 148kts
25-Mar-23 10:45 32.793010 -117.177519 120 2348ft 130kts
25-Mar-23 10:46 32.777839 -117.144231 124 1976ft 123kts
25-Mar-23 10:47 32.763721 -117.112709 115 1768ft 117kts
25-Mar-23 10:48 32.770347 -117.087596 18 1552ft 117kts
25-Mar-23 10:49 32.795169 -117.083909 284 1353ft 94kts
25-Mar-23 10:50 32.804367 -117.113313 293 699ft 93kts
25-Mar-23 10:51 32.813629 -117.137043 289 416ft 65kts
25-Mar-23 10:52 32.814347 -117.140501 240 416ft 2kts
25-Mar-23 10:53 32.813608 -117.141130 52 416ft 0kts
25-Mar-23 10:54 32.813608 -117.141130 52 416ft 0kts
25-Mar-23 10:55 32.813608 -117.141130 52 416ft 0kts

Navigation Log

Ident Type
Flight plan parsing failed, navigation log unavailable